createdAt,value
2019-04-29T00:00:54.666Z,8.73
2019-04-29T00:01:54.580Z,8.70
2019-04-29T00:02:54.718Z,8.77
2019-04-29T00:03:54.610Z,8.58
2019-04-29T00:04:54.771Z,8.65
2019-04-29T00:05:54.619Z,8.59
2019-04-29T00:06:54.705Z,8.56
2019-04-29T00:07:54.657Z,8.62
2019-04-29T00:08:54.659Z,8.53
2019-04-29T00:09:54.681Z,8.58
2019-04-29T00:10:54.679Z,8.62
2019-04-29T00:11:54.701Z,8.61
2019-04-29T00:12:54.706Z,8.50
2019-04-29T00:13:54.739Z,8.52
2019-04-29T00:14:54.729Z,8.50
2019-04-29T00:15:54.806Z,8.47
2019-04-29T00:16:54.756Z,8.47
2019-04-29T00:17:54.779Z,8.48
2019-04-29T00:18:54.835Z,8.45
2019-04-29T00:19:55.319Z,8.47
2019-04-29T00:20:54.864Z,8.52
2019-04-29T00:21:54.812Z,8.47
2019-04-29T00:22:54.834Z,8.48
2019-04-29T00:24:03.578Z,8.47
2019-04-29T00:24:54.890Z,8.50
2019-04-29T00:25:54.875Z,8.45
2019-04-29T00:26:54.883Z,8.45
2019-04-29T00:27:54.928Z,8.48
2019-04-29T00:28:55.012Z,8.36
2019-04-29T00:31:54.955Z,8.47
2019-04-29T00:32:54.938Z,8.41
2019-04-29T00:33:54.953Z,8.37
2019-04-29T00:34:54.971Z,8.38
2019-04-29T00:35:54.985Z,8.36
2019-04-29T00:36:55.006Z,8.40
2019-04-29T00:37:54.998Z,8.37
2019-04-29T00:38:55.407Z,8.40
2019-04-29T00:39:55.622Z,8.36
2019-04-29T00:40:55.132Z,8.41
2019-04-29T00:42:55.068Z,8.34
2019-04-29T00:43:55.085Z,8.26
2019-04-29T00:44:55.091Z,8.33
2019-04-29T00:45:55.090Z,8.19
2019-04-29T00:46:55.103Z,8.18
2019-04-29T00:47:55.124Z,8.20
2019-04-29T00:48:55.136Z,8.19
2019-04-29T00:49:55.145Z,8.04
2019-04-29T00:50:55.150Z,8.01
2019-04-29T00:51:55.172Z,8.02
2019-04-29T00:52:55.195Z,8.00
2019-04-29T00:53:55.215Z,8.00
2019-04-29T00:54:55.202Z,7.93
2019-04-29T00:56:55.266Z,8.00
2019-04-29T00:57:55.354Z,8.00
2019-04-29T00:58:55.243Z,7.93
2019-04-29T00:59:55.260Z,7.92
2019-04-29T01:00:55.272Z,8.00
2019-04-29T01:01:56.970Z,7.97
2019-04-29T01:02:55.290Z,7.98
2019-04-29T01:03:55.350Z,7.92
2019-04-29T01:04:55.919Z,7.90
2019-04-29T01:05:55.320Z,7.87
2019-04-29T01:06:55.418Z,7.95
2019-04-29T01:07:55.397Z,7.89
2019-04-29T01:08:55.418Z,7.89
2019-04-29T01:09:55.373Z,7.85
2019-04-29T01:10:55.411Z,7.87
2019-04-29T01:11:55.419Z,7.87
2019-04-29T01:12:55.408Z,7.92
2019-04-29T01:15:55.498Z,7.90
2019-04-29T01:16:55.503Z,7.87
2019-04-29T01:17:55.460Z,7.89
2019-04-29T01:18:55.470Z,7.87
2019-04-29T01:19:55.498Z,7.86
2019-04-29T01:20:55.572Z,7.82
2019-04-29T01:21:55.556Z,7.86
2019-04-29T01:22:55.523Z,7.83
2019-04-29T01:23:55.544Z,7.83
2019-04-29T01:24:55.549Z,7.75
2019-04-29T01:25:55.564Z,7.79
2019-04-29T01:26:55.556Z,7.87
2019-04-29T01:27:55.884Z,7.89
2019-04-29T01:28:55.600Z,7.95
2019-04-29T01:29:55.607Z,7.98
2019-04-29T01:30:55.608Z,8.01
2019-04-29T01:31:55.629Z,7.90
2019-04-29T01:32:56.156Z,8.00
2019-04-29T01:33:57.013Z,7.97
2019-04-29T01:34:55.682Z,7.89
2019-04-29T01:35:55.662Z,7.92
2019-04-29T01:36:55.728Z,7.89
2019-04-29T01:38:55.710Z,7.86
2019-04-29T01:39:55.825Z,7.90
2019-04-29T01:40:56.335Z,7.87
2019-04-29T01:41:55.791Z,7.89
2019-04-29T01:42:55.741Z,7.89
2019-04-29T01:43:55.764Z,7.92
2019-04-29T01:44:55.784Z,7.90
2019-04-29T01:45:55.829Z,7.83
2019-04-29T01:48:55.846Z,7.75
2019-04-29T01:49:55.827Z,7.77
2019-04-29T01:50:55.862Z,7.89
2019-04-29T01:51:55.867Z,7.79
2019-04-29T01:52:56.101Z,7.85
2019-04-29T01:53:55.885Z,7.82
2019-04-29T01:54:55.894Z,7.86
2019-04-29T01:55:55.912Z,7.92
2019-04-29T01:56:55.907Z,7.95
2019-04-29T01:57:55.921Z,7.95
2019-04-29T01:58:58.556Z,7.98
2019-04-29T01:59:55.955Z,7.98
2019-04-29T02:00:55.951Z,8.00
2019-04-29T02:01:56.086Z,7.98
2019-04-29T02:02:56.012Z,7.89
2019-04-29T02:03:55.981Z,8.01
2019-04-29T02:05:56.018Z,7.98
2019-04-29T02:06:56.014Z,7.90
2019-04-29T02:07:56.144Z,7.90
2019-04-29T02:08:56.246Z,7.89
2019-04-29T02:09:56.056Z,7.93
2019-04-29T02:10:56.080Z,7.92
2019-04-29T02:11:56.078Z,7.97
2019-04-29T02:12:56.086Z,7.92
2019-04-29T02:13:56.094Z,8.00
2019-04-29T02:14:56.105Z,7.93
2019-04-29T02:15:56.673Z,7.95
2019-04-29T02:16:56.337Z,7.89
2019-04-29T02:17:57.566Z,7.86
2019-04-29T02:18:56.164Z,7.82
2019-04-29T02:19:56.214Z,7.74
2019-04-29T02:20:56.710Z,7.74
2019-04-29T02:21:56.193Z,7.75
2019-04-29T02:22:56.205Z,7.72
2019-04-29T02:23:56.209Z,7.77
2019-04-29T02:24:56.212Z,7.72
2019-04-29T02:25:56.230Z,7.63
2019-04-29T02:26:56.247Z,7.71
2019-04-29T02:27:56.258Z,7.75
2019-04-29T02:28:56.281Z,7.72
2019-04-29T02:30:56.298Z,7.87
2019-04-29T02:32:56.407Z,7.83
2019-04-29T02:33:56.329Z,7.87
2019-04-29T02:34:56.344Z,7.82
2019-04-29T02:35:57.175Z,7.83
2019-04-29T02:36:56.351Z,7.75
2019-04-29T02:37:56.353Z,7.85
2019-04-29T02:38:56.924Z,7.80
2019-04-29T02:39:56.381Z,7.75
2019-04-29T02:40:56.408Z,7.74
2019-04-29T02:41:56.402Z,7.74
2019-04-29T02:42:56.415Z,7.68
2019-04-29T02:43:56.472Z,7.69
2019-04-29T02:44:56.450Z,7.64
2019-04-29T02:45:56.442Z,7.72
2019-04-29T02:46:56.463Z,7.63
2019-04-29T02:47:58.233Z,7.64
2019-04-29T02:48:56.912Z,7.64
2019-04-29T02:49:57.604Z,7.64
2019-04-29T02:50:56.551Z,7.67
2019-04-29T02:51:56.713Z,7.64
2019-04-29T02:52:56.800Z,7.49
2019-04-29T02:53:56.557Z,7.46
2019-04-29T02:54:56.549Z,7.49
2019-04-29T02:55:56.572Z,7.57
2019-04-29T02:56:56.628Z,7.55
2019-04-29T02:57:56.586Z,7.50
2019-04-29T02:58:56.603Z,7.50
2019-04-29T02:59:56.609Z,7.46
2019-04-29T03:00:56.609Z,7.48
2019-04-29T03:01:56.629Z,7.52
2019-04-29T03:02:56.820Z,7.45
2019-04-29T03:03:56.652Z,7.45
2019-04-29T03:04:56.675Z,7.43
2019-04-29T03:05:56.673Z,7.31
2019-04-29T03:06:56.705Z,7.28
2019-04-29T03:07:56.798Z,7.30
2019-04-29T03:08:56.709Z,7.25
2019-04-29T03:10:57.241Z,7.20
2019-04-29T03:11:56.739Z,7.17
2019-04-29T03:12:56.760Z,7.20
2019-04-29T03:13:56.759Z,7.24
2019-04-29T03:14:56.767Z,7.24
2019-04-29T03:15:56.832Z,7.21
2019-04-29T03:16:56.811Z,7.21
2019-04-29T03:17:57.209Z,7.20
2019-04-29T03:18:56.954Z,7.21
2019-04-29T03:19:56.823Z,7.25
2019-04-29T03:20:57.052Z,7.15
2019-04-29T03:21:56.871Z,7.21
2019-04-29T03:22:57.532Z,7.13
2019-04-29T03:23:56.872Z,7.13
2019-04-29T03:24:56.955Z,7.21
2019-04-29T03:25:56.898Z,7.10
2019-04-29T03:26:56.924Z,7.16
2019-04-29T03:28:56.928Z,7.31
2019-04-29T03:29:57.023Z,7.42
2019-04-29T03:30:56.959Z,7.43
2019-04-29T03:31:56.973Z,7.52
2019-04-29T03:32:57.330Z,7.50
2019-04-29T03:33:56.987Z,7.53
2019-04-29T03:34:57.018Z,7.53
2019-04-29T03:36:00.208Z,7.55
2019-04-29T03:36:57.018Z,7.53
2019-04-29T03:37:57.042Z,7.55
2019-04-29T03:38:57.061Z,7.42
2019-04-29T03:39:57.158Z,7.42
2019-04-29T03:40:57.074Z,7.48
2019-04-29T03:41:57.180Z,7.42
2019-04-29T03:42:57.082Z,7.48
2019-04-29T03:43:57.084Z,7.46
2019-04-29T03:44:57.105Z,7.48
2019-04-29T03:45:57.121Z,7.46
2019-04-29T03:46:57.118Z,7.45
2019-04-29T03:47:57.146Z,7.48
2019-04-29T03:49:57.158Z,7.52
2019-04-29T03:50:57.199Z,7.45
2019-04-29T03:51:57.177Z,7.40
2019-04-29T03:53:58.482Z,7.30
2019-04-29T03:54:57.217Z,7.37
2019-04-29T03:55:57.242Z,7.48
2019-04-29T03:56:57.250Z,7.42
2019-04-29T03:57:57.289Z,7.42
2019-04-29T03:58:57.254Z,7.45
2019-04-29T03:59:57.325Z,7.46
2019-04-29T04:00:57.276Z,7.42
2019-04-29T04:01:57.559Z,7.53
2019-04-29T04:02:57.462Z,7.58
2019-04-29T04:03:57.325Z,7.58
2019-04-29T04:04:57.327Z,7.58
2019-04-29T04:05:57.868Z,7.55
2019-04-29T04:06:57.357Z,7.63
2019-04-29T04:07:57.352Z,7.63
2019-04-29T04:09:06.193Z,7.60
2019-04-29T04:09:57.374Z,7.55
2019-04-29T04:10:57.468Z,7.45
2019-04-29T04:11:57.396Z,7.49
2019-04-29T04:12:57.893Z,7.50
2019-04-29T04:13:57.589Z,7.43
2019-04-29T04:14:57.813Z,7.49
2019-04-29T04:15:57.434Z,7.45
2019-04-29T04:16:57.549Z,7.46
2019-04-29T04:17:57.532Z,7.49
2019-04-29T04:18:57.713Z,7.40
2019-04-29T04:19:57.857Z,7.37
2019-04-29T04:20:57.586Z,7.37
2019-04-29T04:21:57.515Z,7.42
2019-04-29T04:22:57.523Z,7.45
2019-04-29T04:23:58.264Z,7.50
2019-04-29T04:24:57.614Z,7.45
2019-04-29T04:25:57.543Z,7.42
2019-04-29T04:26:57.555Z,7.49
2019-04-29T04:27:57.569Z,7.48
2019-04-29T04:28:57.653Z,7.52
2019-04-29T04:29:57.620Z,7.42
2019-04-29T04:30:57.626Z,7.46
2019-04-29T04:31:58.017Z,7.45
2019-04-29T04:32:57.625Z,7.45
2019-04-29T04:33:57.631Z,7.52
2019-04-29T04:34:57.644Z,7.45
2019-04-29T04:35:57.663Z,7.50
2019-04-29T04:37:00.225Z,7.50
2019-04-29T04:38:57.685Z,7.60
2019-04-29T04:39:57.811Z,7.57
2019-04-29T04:40:57.724Z,7.48
2019-04-29T04:41:57.740Z,7.46
2019-04-29T04:42:57.791Z,7.42
2019-04-29T04:43:57.742Z,7.49
2019-04-29T04:44:57.794Z,7.49
2019-04-29T04:45:57.766Z,7.49
2019-04-29T04:46:57.836Z,7.45
2019-04-29T04:47:57.809Z,7.43
2019-04-29T04:48:57.809Z,7.42
2019-04-29T04:49:57.929Z,7.34
2019-04-29T04:50:57.883Z,7.43
2019-04-29T04:51:57.823Z,7.40
2019-04-29T04:52:57.934Z,7.46
2019-04-29T04:53:57.899Z,7.42
2019-04-29T04:54:57.868Z,7.46
2019-04-29T04:55:57.869Z,7.39
2019-04-29T04:56:58.418Z,7.42
2019-04-29T04:58:01.076Z,7.40
2019-04-29T04:58:57.898Z,7.45
2019-04-29T04:59:57.917Z,7.49
2019-04-29T05:00:57.942Z,7.52
2019-04-29T05:01:58.910Z,7.49
2019-04-29T05:02:57.953Z,7.67
2019-04-29T05:03:58.059Z,7.61
2019-04-29T05:04:57.966Z,7.64
2019-04-29T05:05:58.000Z,7.64
2019-04-29T05:06:58.007Z,7.64
2019-04-29T05:07:58.020Z,7.64
2019-04-29T05:08:58.078Z,7.64
2019-04-29T05:09:58.038Z,7.63
2019-04-29T05:10:58.040Z,7.60
2019-04-29T05:11:58.056Z,7.72
2019-04-29T05:12:58.549Z,7.72
2019-04-29T05:13:58.078Z,7.82
2019-04-29T05:15:01.546Z,7.85
2019-04-29T05:15:59.545Z,7.82
2019-04-29T05:16:58.411Z,7.89
2019-04-29T05:17:58.125Z,7.87
2019-04-29T05:18:58.251Z,7.86
2019-04-29T05:19:58.300Z,7.92
2019-04-29T05:20:58.156Z,7.95
2019-04-29T05:21:58.426Z,7.98
2019-04-29T05:22:58.679Z,7.95
2019-04-29T05:23:58.519Z,7.97
2019-04-29T05:24:58.502Z,8.04
2019-04-29T05:25:58.203Z,8.02
2019-04-29T05:26:58.259Z,8.20
2019-04-29T05:27:59.581Z,8.16
2019-04-29T05:28:58.259Z,8.22
2019-04-29T05:29:58.268Z,8.25
2019-04-29T05:30:59.452Z,8.20
2019-04-29T05:31:58.277Z,8.23
2019-04-29T05:32:59.305Z,8.25
2019-04-29T05:33:59.683Z,8.22
2019-04-29T05:34:58.360Z,8.34
2019-04-29T05:36:02.067Z,8.28
2019-04-29T05:36:58.607Z,8.36
2019-04-29T05:37:58.347Z,8.41
2019-04-29T05:38:58.347Z,8.50
2019-04-29T05:39:58.389Z,8.56
2019-04-29T05:40:58.370Z,8.62
2019-04-29T05:41:58.403Z,8.65
2019-04-29T05:42:58.391Z,8.63
2019-04-29T05:43:58.463Z,8.70
2019-04-29T05:44:58.424Z,8.77
2019-04-29T05:45:58.453Z,8.73
2019-04-29T05:46:58.444Z,8.73
2019-04-29T05:47:58.655Z,8.86
2019-04-29T05:49:02.325Z,8.81
2019-04-29T05:49:58.483Z,8.92
2019-04-29T05:52:01.993Z,8.96
2019-04-29T05:52:58.520Z,9.02
2019-04-29T05:53:58.530Z,9.02
2019-04-29T05:55:01.364Z,9.10
2019-04-29T05:55:58.552Z,9.01
2019-04-29T05:56:58.551Z,9.04
2019-04-29T05:58:02.992Z,9.05
2019-04-29T05:58:58.581Z,9.05
2019-04-29T05:59:58.711Z,9.11
2019-04-29T06:00:58.608Z,9.20
2019-04-29T06:01:58.633Z,9.17
2019-04-29T06:02:58.638Z,9.14
2019-04-29T06:03:58.640Z,9.08
2019-04-29T06:04:58.655Z,9.10
2019-04-29T06:05:58.661Z,9.18
2019-04-29T06:06:58.667Z,9.26
2019-04-29T06:08:01.047Z,9.24
2019-04-29T06:08:58.736Z,9.29
2019-04-29T06:09:58.744Z,9.24
2019-04-29T06:10:58.742Z,9.28
2019-04-29T06:11:58.735Z,9.24
2019-04-29T06:12:58.817Z,9.39
2019-04-29T06:13:59.569Z,9.42
2019-04-29T06:14:58.785Z,9.47
2019-04-29T06:15:58.790Z,9.48
2019-04-29T06:17:58.803Z,9.38
2019-04-29T06:19:00.375Z,9.51
2019-04-29T06:19:58.846Z,9.47
2019-04-29T06:21:08.925Z,9.66
2019-04-29T06:21:59.983Z,9.56
2019-04-29T06:23:00.097Z,9.60
2019-04-29T06:24:03.737Z,9.57
2019-04-29T06:25:00.188Z,9.51
2019-04-29T06:26:59.311Z,9.68
2019-04-29T06:27:59.203Z,9.75
2019-04-29T06:31:59.854Z,9.99
2019-04-29T06:35:00.267Z,10.04
2019-04-29T06:36:59.363Z,10.08
2019-04-29T06:38:59.228Z,10.15
2019-04-29T06:39:59.489Z,10.17
2019-04-29T06:40:59.251Z,10.17
2019-04-29T06:43:02.381Z,10.18
2019-04-29T06:44:00.624Z,10.15
2019-04-29T06:45:00.075Z,10.14
2019-04-29T06:45:59.380Z,10.17
2019-04-29T06:46:59.404Z,10.29
2019-04-29T06:47:59.295Z,10.25
2019-04-29T06:49:10.052Z,10.34
2019-04-29T06:49:59.214Z,10.45
2019-04-29T06:50:59.274Z,10.53
2019-04-29T06:51:59.220Z,10.63
2019-04-29T06:52:59.246Z,10.63
2019-04-29T06:53:59.248Z,10.74
2019-04-29T06:55:00.985Z,10.66
2019-04-29T06:55:59.295Z,10.66
2019-04-29T06:56:59.282Z,10.63
2019-04-29T06:57:59.300Z,10.63
2019-04-29T06:58:59.410Z,10.63
2019-04-29T06:59:59.319Z,10.64
2019-04-29T07:01:01.037Z,10.76
2019-04-29T07:01:59.407Z,10.71
2019-04-29T07:02:59.449Z,10.82
2019-04-29T07:03:59.920Z,10.73
2019-04-29T07:04:59.379Z,10.84
2019-04-29T07:05:59.411Z,10.81
2019-04-29T07:06:59.552Z,10.81
2019-04-29T07:07:59.457Z,10.76
2019-04-29T07:08:59.460Z,10.85
2019-04-29T07:09:59.522Z,10.94
2019-04-29T07:11:01.199Z,10.99
2019-04-29T07:12:01.564Z,10.96
2019-04-29T07:12:59.889Z,11.03
2019-04-29T07:15:59.526Z,11.09
2019-04-29T07:17:00.911Z,11.10
2019-04-29T07:18:00.177Z,11.07
2019-04-29T07:19:00.112Z,11.11
2019-04-29T07:20:01.982Z,11.18
2019-04-29T07:20:59.586Z,11.18
2019-04-29T07:21:59.613Z,11.15
2019-04-29T07:23:00.657Z,11.21
2019-04-29T07:23:59.682Z,11.28
2019-04-29T07:24:59.629Z,11.35
2019-04-29T07:25:59.649Z,11.47
2019-04-29T07:27:02.813Z,11.47
2019-04-29T07:27:59.676Z,11.54
2019-04-29T07:29:01.130Z,11.57
2019-04-29T07:30:01.736Z,11.69
2019-04-29T07:31:01.758Z,11.67
2019-04-29T07:31:59.733Z,11.73
2019-04-29T07:32:59.748Z,11.70
2019-04-29T07:33:59.755Z,11.69
2019-04-29T07:34:59.755Z,11.70
2019-04-29T07:36:10.817Z,11.65
2019-04-29T07:36:59.814Z,11.64
2019-04-29T07:37:59.813Z,11.70
2019-04-29T07:38:59.826Z,11.73
2019-04-29T07:40:03.783Z,11.79
2019-04-29T07:40:59.844Z,11.76
2019-04-29T07:42:03.021Z,11.91
2019-04-29T07:43:02.879Z,11.94
2019-04-29T07:43:59.906Z,12.12
2019-04-29T07:44:59.938Z,12.13
2019-04-29T07:46:03.730Z,12.19
2019-04-29T07:47:02.450Z,12.32
2019-04-29T07:48:01.762Z,12.31
2019-04-29T07:49:01.700Z,12.39
2019-04-29T07:49:59.988Z,12.38
2019-04-29T07:51:04.210Z,12.49
2019-04-29T07:51:59.993Z,12.47
2019-04-29T07:53:00.232Z,12.41
2019-04-29T07:54:00.013Z,12.39
2019-04-29T07:55:00.275Z,12.28
2019-04-29T07:56:01.749Z,12.39
2019-04-29T07:57:00.068Z,12.35
2019-04-29T07:58:00.082Z,12.35
2019-04-29T07:59:03.011Z,12.35
2019-04-29T08:00:00.097Z,12.31
2019-04-29T08:01:00.104Z,12.47
2019-04-29T08:02:01.393Z,12.50
2019-04-29T08:03:00.113Z,12.50
2019-04-29T08:04:00.133Z,12.46
2019-04-29T08:05:02.890Z,12.52
2019-04-29T08:06:00.170Z,12.42
2019-04-29T08:07:00.175Z,12.24
2019-04-29T08:08:00.807Z,12.32
2019-04-29T08:09:03.238Z,12.37
2019-04-29T08:10:00.245Z,12.45
2019-04-29T08:11:00.220Z,12.47
2019-04-29T08:12:00.265Z,12.47
2019-04-29T08:13:00.250Z,12.50
2019-04-29T08:14:01.260Z,12.62
2019-04-29T08:15:07.510Z,12.67
2019-04-29T08:16:00.744Z,12.71
2019-04-29T08:17:00.313Z,12.64
2019-04-29T08:18:06.727Z,12.67
2019-04-29T08:19:00.444Z,12.67
2019-04-29T08:20:00.669Z,12.79
2019-04-29T08:21:00.367Z,12.82
2019-04-29T08:22:00.437Z,12.77
2019-04-29T08:23:02.591Z,12.82
2019-04-29T08:24:00.416Z,12.75
2019-04-29T08:25:00.417Z,12.72
2019-04-29T08:26:02.699Z,12.86
2019-04-29T08:27:00.448Z,12.79
2019-04-29T08:28:00.613Z,12.97
2019-04-29T08:30:00.478Z,13.07
2019-04-29T08:31:00.506Z,13.03
2019-04-29T08:32:02.581Z,13.14
2019-04-29T08:34:00.865Z,13.10
2019-04-29T08:35:03.283Z,13.03
2019-04-29T08:38:00.597Z,13.19
2019-04-29T08:39:08.395Z,13.15
2019-04-29T08:40:15.487Z,13.28
2019-04-29T08:41:01.272Z,13.29
2019-04-29T08:42:03.770Z,13.38
2019-04-29T08:43:00.664Z,13.41
2019-04-29T08:44:15.237Z,13.41
2019-04-29T08:45:01.678Z,13.38
2019-04-29T08:46:00.800Z,13.42
2019-04-29T08:47:00.733Z,13.44
2019-04-29T08:48:00.741Z,13.45
2019-04-29T08:49:01.049Z,13.54
2019-04-29T08:50:00.927Z,13.45
2019-04-29T08:52:01.420Z,13.45
2019-04-29T08:53:00.802Z,13.49
2019-04-29T08:54:00.809Z,13.59
2019-04-29T08:55:00.817Z,13.64
2019-04-29T08:56:00.828Z,13.71
2019-04-29T08:57:04.065Z,13.81
2019-04-29T08:59:00.943Z,13.81
2019-04-29T09:00:00.946Z,13.84
2019-04-29T09:01:00.955Z,13.87
2019-04-29T09:03:00.970Z,13.89
2019-04-29T09:04:00.944Z,13.92
2019-04-29T09:05:01.024Z,13.91
2019-04-29T09:06:05.593Z,13.92
2019-04-29T09:07:12.066Z,13.97
2019-04-29T09:08:01.000Z,13.99
2019-04-29T09:09:04.908Z,14.02
2019-04-29T09:10:03.349Z,13.96
2019-04-29T09:11:01.027Z,14.06
2019-04-29T09:12:01.053Z,14.06
2019-04-29T09:13:01.095Z,14.22
2019-04-29T09:14:01.077Z,14.33
2019-04-29T09:16:01.546Z,14.47
2019-04-29T09:17:01.120Z,14.51
2019-04-29T09:18:01.195Z,14.57
2019-04-29T09:19:01.149Z,14.68
2019-04-29T09:20:01.166Z,14.64
2019-04-29T09:21:01.223Z,14.64
2019-04-29T09:22:01.197Z,14.57
2019-04-29T09:23:01.204Z,14.69
2019-04-29T09:24:01.206Z,14.68
2019-04-29T09:25:01.223Z,14.69
2019-04-29T09:26:02.733Z,14.64
2019-04-29T09:27:05.011Z,14.61
2019-04-29T09:28:01.278Z,14.62
2019-04-29T09:29:03.927Z,14.62
2019-04-29T09:30:01.340Z,14.72
2019-04-29T09:31:01.333Z,14.72
2019-04-29T09:32:01.427Z,14.86
2019-04-29T09:33:01.358Z,15.02
2019-04-29T09:34:06.889Z,14.96
2019-04-29T09:35:02.192Z,15.02
2019-04-29T09:36:01.406Z,15.01
2019-04-29T09:37:01.403Z,15.02
2019-04-29T09:38:01.448Z,14.95
2019-04-29T09:39:01.446Z,14.78
2019-04-29T09:40:01.470Z,15.03
2019-04-29T09:41:01.670Z,15.01
2019-04-29T09:42:03.374Z,15.02
2019-04-29T09:43:14.797Z,15.13
2019-04-29T09:44:03.880Z,15.23
2019-04-29T09:45:01.529Z,15.28
2019-04-29T09:46:01.526Z,15.53
2019-04-29T09:47:04.181Z,15.50
2019-04-29T09:48:01.732Z,15.50
2019-04-29T09:49:01.569Z,15.51
2019-04-29T09:50:01.608Z,15.49
2019-04-29T09:51:01.603Z,15.23
2019-04-29T09:52:01.603Z,15.03
2019-04-29T09:53:01.630Z,15.14
2019-04-29T09:54:01.669Z,15.20
2019-04-29T09:56:02.614Z,15.06
2019-04-29T09:57:03.057Z,14.99
2019-04-29T09:58:01.744Z,15.06
2019-04-29T10:00:05.354Z,15.20
2019-04-29T10:01:01.774Z,15.20
2019-04-29T10:02:01.785Z,15.11
2019-04-29T10:03:02.859Z,15.20
2019-04-29T10:04:01.943Z,15.23
2019-04-29T10:05:01.828Z,15.17
2019-04-29T10:06:02.129Z,15.17
2019-04-29T10:07:01.822Z,15.23
2019-04-29T10:08:01.846Z,15.34
2019-04-29T10:09:01.855Z,15.34
2019-04-29T10:10:06.077Z,15.36
2019-04-29T10:11:01.878Z,15.38
2019-04-29T10:12:01.900Z,15.35
2019-04-29T10:13:01.903Z,15.44
2019-04-29T10:14:01.934Z,15.49
2019-04-29T10:15:01.977Z,15.53
2019-04-29T10:16:02.192Z,15.67
2019-04-29T10:17:01.980Z,15.62
2019-04-29T10:18:01.991Z,15.72
2019-04-29T10:19:05.330Z,15.80
2019-04-29T10:20:02.066Z,15.83
2019-04-29T10:21:02.025Z,15.82
2019-04-29T10:22:02.926Z,15.82
2019-04-29T10:25:03.398Z,15.84
2019-04-29T10:26:02.218Z,15.94
2019-04-29T10:27:02.140Z,15.96
2019-04-29T10:28:02.123Z,15.94
2019-04-29T10:29:02.151Z,15.80
2019-04-29T10:30:02.167Z,16.00
2019-04-29T10:31:02.167Z,15.82
2019-04-29T10:32:02.548Z,15.96
2019-04-29T10:33:02.201Z,16.05
2019-04-29T10:34:02.223Z,16.00
2019-04-29T10:35:03.668Z,15.96
2019-04-29T10:36:02.261Z,16.08
2019-04-29T10:37:02.784Z,16.07
2019-04-29T10:38:03.196Z,16.07
2019-04-29T10:39:02.288Z,16.27
2019-04-29T10:40:10.922Z,16.04
2019-04-29T10:41:02.415Z,15.94
2019-04-29T10:42:02.338Z,15.76
2019-04-29T10:44:02.377Z,15.65
2019-04-29T10:45:02.431Z,15.68
2019-04-29T10:46:02.393Z,15.76
2019-04-29T10:47:02.408Z,15.90
2019-04-29T10:48:02.431Z,15.97
2019-04-29T10:49:03.728Z,15.94
2019-04-29T10:50:02.464Z,16.09
2019-04-29T10:51:02.554Z,16.07
2019-04-29T10:52:02.804Z,15.80
2019-04-29T10:53:02.509Z,15.86
2019-04-29T10:55:03.085Z,16.27
2019-04-29T10:56:05.774Z,16.28
2019-04-29T10:57:02.678Z,16.24
2019-04-29T10:58:02.566Z,16.41
2019-04-29T10:59:04.608Z,16.58
2019-04-29T11:00:02.660Z,16.33
2019-04-29T11:01:02.698Z,16.25
2019-04-29T11:02:08.993Z,16.39
2019-04-29T11:03:02.637Z,16.43
2019-04-29T11:04:02.951Z,16.45
2019-04-29T11:05:02.948Z,16.46
2019-04-29T11:06:02.692Z,16.48
2019-04-29T11:07:13.583Z,16.43
2019-04-29T11:08:04.297Z,16.35
2019-04-29T11:09:02.737Z,16.05
2019-04-29T11:10:03.033Z,16.04
2019-04-29T11:11:02.850Z,16.28
2019-04-29T11:12:03.294Z,16.28
2019-04-29T11:13:03.011Z,16.20
2019-04-29T11:14:03.269Z,16.30
2019-04-29T11:15:03.896Z,16.21
2019-04-29T11:16:02.838Z,16.30
2019-04-29T11:17:03.296Z,16.24
2019-04-29T11:18:03.666Z,16.28
2019-04-29T11:19:05.323Z,16.33
2019-04-29T11:20:02.904Z,16.48
2019-04-29T11:21:02.898Z,16.63
2019-04-29T11:22:03.300Z,16.88
2019-04-29T11:23:03.810Z,17.06
2019-04-29T11:24:02.976Z,17.18
2019-04-29T11:25:03.070Z,17.33
2019-04-29T11:26:03.033Z,17.38
2019-04-29T11:27:11.479Z,17.46
2019-04-29T11:28:03.167Z,17.28
2019-04-29T11:29:05.544Z,17.34
2019-04-29T11:31:03.066Z,17.26
2019-04-29T11:32:03.070Z,17.22
2019-04-29T11:33:04.666Z,17.08
2019-04-29T11:34:05.454Z,17.06
2019-04-29T11:35:03.210Z,17.07
2019-04-29T11:36:04.105Z,17.03
2019-04-29T11:37:03.155Z,17.04
2019-04-29T11:38:03.202Z,16.82
2019-04-29T11:39:03.253Z,16.81
2019-04-29T11:40:03.370Z,16.83
2019-04-29T11:41:03.215Z,16.79
2019-04-29T11:44:03.270Z,17.06
2019-04-29T11:45:03.822Z,17.12
2019-04-29T11:46:03.290Z,17.15
2019-04-29T11:47:03.359Z,17.15
2019-04-29T11:48:03.340Z,17.36
2019-04-29T11:49:03.357Z,17.37
2019-04-29T11:50:03.335Z,17.18
2019-04-29T11:51:03.395Z,17.04
2019-04-29T11:52:09.651Z,17.21
2019-04-29T11:53:04.388Z,17.34
2019-04-29T11:54:03.399Z,17.36
2019-04-29T11:55:03.426Z,17.07
2019-04-29T11:56:03.444Z,17.01
2019-04-29T11:57:03.438Z,16.98
2019-04-29T11:58:03.452Z,16.97
2019-04-29T11:59:03.514Z,17.07
2019-04-29T12:00:03.482Z,17.08
2019-04-29T12:01:04.031Z,16.89
2019-04-29T12:02:03.515Z,16.97
2019-04-29T12:03:03.541Z,16.88
2019-04-29T12:04:03.561Z,16.79
2019-04-29T12:05:04.295Z,16.88
2019-04-29T12:06:03.592Z,16.83
2019-04-29T12:07:03.845Z,16.93
2019-04-29T12:08:11.211Z,17.11
2019-04-29T12:09:06.619Z,17.07
2019-04-29T12:10:06.598Z,17.23
2019-04-29T12:11:07.107Z,17.33
2019-04-29T12:12:03.666Z,17.43
2019-04-29T12:13:03.683Z,17.51
2019-04-29T12:14:04.652Z,17.41
2019-04-29T12:15:03.739Z,17.37
2019-04-29T12:16:03.738Z,17.44
2019-04-29T12:17:03.797Z,17.19
2019-04-29T12:18:03.770Z,17.07
2019-04-29T12:19:04.601Z,16.82
2019-04-29T12:20:03.813Z,16.49
2019-04-29T12:21:03.811Z,16.42
2019-04-29T12:22:04.962Z,16.68
2019-04-29T12:23:03.940Z,16.79
2019-04-29T12:24:03.846Z,16.96
2019-04-29T12:25:03.911Z,17.21
2019-04-29T12:26:05.035Z,17.11
2019-04-29T12:27:03.951Z,17.36
2019-04-29T12:28:18.152Z,17.63
2019-04-29T12:29:03.923Z,17.78
2019-04-29T12:30:03.967Z,18.07
2019-04-29T12:31:05.685Z,17.82
2019-04-29T12:32:04.041Z,18.15
2019-04-29T12:33:03.993Z,18.23
2019-04-29T12:34:04.007Z,18.26
2019-04-29T12:35:04.023Z,18.33
2019-04-29T12:36:05.207Z,18.07
2019-04-29T12:37:04.081Z,18.07
2019-04-29T12:38:05.516Z,18.02
2019-04-29T12:39:04.081Z,17.93
2019-04-29T12:40:04.080Z,18.03
2019-04-29T12:41:04.111Z,18.10
2019-04-29T12:42:04.701Z,18.11
2019-04-29T12:43:04.140Z,18.17
2019-04-29T12:44:04.183Z,18.05
2019-04-29T12:45:04.161Z,17.92
2019-04-29T12:46:04.249Z,18.03
2019-04-29T12:47:04.202Z,18.03
2019-04-29T12:48:06.485Z,18.11
2019-04-29T12:49:08.597Z,18.20
2019-04-29T12:50:04.279Z,18.14
2019-04-29T12:51:04.331Z,18.12
2019-04-29T12:52:04.296Z,17.90
2019-04-29T12:53:04.281Z,17.84
2019-04-29T12:54:04.306Z,17.93
2019-04-29T12:55:19.652Z,17.95
2019-04-29T12:56:07.175Z,17.92
2019-04-29T12:57:04.357Z,17.95
2019-04-29T12:58:04.629Z,17.89
2019-04-29T12:59:04.478Z,17.49
2019-04-29T13:00:07.647Z,17.38
2019-04-29T13:01:05.942Z,17.49
2019-04-29T13:02:04.813Z,17.44
2019-04-29T13:03:04.657Z,17.49
2019-04-29T13:04:04.463Z,17.48
2019-04-29T13:05:04.576Z,17.46
2019-04-29T13:06:04.484Z,17.33
2019-04-29T13:07:06.786Z,17.46
2019-04-29T13:08:04.598Z,17.70
2019-04-29T13:09:17.343Z,17.90
2019-04-29T13:10:06.844Z,17.78
2019-04-29T13:11:04.581Z,17.74
2019-04-29T13:12:17.708Z,17.41
2019-04-29T13:13:04.592Z,17.19
2019-04-29T13:14:04.628Z,17.07
2019-04-29T13:15:08.036Z,17.34
2019-04-29T13:16:04.704Z,17.22
2019-04-29T13:17:14.312Z,17.46
2019-04-29T13:18:12.810Z,17.46
2019-04-29T13:19:14.516Z,17.43
2019-04-29T13:20:07.229Z,17.55
2019-04-29T13:21:10.559Z,17.46
2019-04-29T13:22:04.729Z,17.36
2019-04-29T13:23:17.780Z,17.04
2019-04-29T13:24:22.120Z,17.07
2019-04-29T13:25:04.921Z,17.21
2019-04-29T13:28:05.287Z,17.31
2019-04-29T13:29:04.834Z,17.41
2019-04-29T13:30:07.228Z,17.37
2019-04-29T13:31:04.892Z,17.22
2019-04-29T13:32:04.889Z,17.08
2019-04-29T13:33:05.951Z,17.22
2019-04-29T13:34:22.381Z,17.11
2019-04-29T13:35:05.481Z,17.07
2019-04-29T13:36:04.960Z,16.91
2019-04-29T13:37:12.339Z,16.96
2019-04-29T13:38:05.215Z,16.97
2019-04-29T13:39:05.023Z,16.76
2019-04-29T13:40:05.107Z,16.71
2019-04-29T13:41:13.437Z,16.66
2019-04-29T13:42:09.255Z,16.53
2019-04-29T13:43:05.117Z,16.38
2019-04-29T13:45:12.212Z,16.15
2019-04-29T13:46:05.406Z,16.25
2019-04-29T13:47:05.443Z,16.14
2019-04-29T13:48:07.250Z,16.20
2019-04-29T13:49:13.266Z,16.08
2019-04-29T13:50:17.921Z,16.09
2019-04-29T13:51:05.420Z,16.02
2019-04-29T13:52:05.302Z,16.04
2019-04-29T13:53:06.154Z,16.01
2019-04-29T13:54:06.077Z,16.00
2019-04-29T13:56:11.686Z,15.90